Time;durP1;ratioP1;P1;durP2;ratioP2;P2;SDS_P1;SDS_P2;PMS_P1;PMS_P2;Temp;Humidity;BMP_temperature;BMP_pressure;BME280_temperature;BME280_humidity;BME280_pressure;Samples;Min_cycle;Max_cycle;Signal;HPM_P1;HPM_P2
2021/01/22 00:00:46;;;;;;;;;;;;;;;2.53;100.00;91199.78;1059539;56;20162;-86
2021/01/22 00:01:46;;;;;;;;;;;;;;;2.50;100.00;91197.97;1061702;56;20666;-85
2021/01/22 00:02:47;;;;;;;;;;;;;;;2.45;100.00;91195.81;1061384;56;20193;-86
2021/01/22 00:03:48;;;;;;;;;;;;;;;2.43;100.00;91200.03;1059380;56;20188;-85
2021/01/22 00:04:48;;;;;;;;;;;;;;;2.42;100.00;91191.38;1057239;56;20181;-85
2021/01/22 00:05:50;;;;;;;;;;;;;;;2.40;100.00;91185.03;1059302;56;20170;-87
2021/01/22 00:06:50;;;;;;;;;;;;;;;2.36;100.00;91187.00;1059366;56;21201;-86
2021/01/22 00:07:51;;;;;;;;;;;;;;;2.28;100.00;91186.41;1059371;56;20166;-85
2021/01/22 00:08:52;;;;;;;;;;;;;;;2.27;100.00;91190.19;1059364;56;20225;-86
2021/01/22 00:09:53;;;;;;;;;;;;;;;2.24;100.00;91188.41;1057237;56;20162;-86
2021/01/22 00:10:53;;;;;;;;;;;;;;;2.21;100.00;91189.22;1059462;56;20163;-85
2021/01/22 00:11:54;;;;;;;;;;;;;;;2.25;100.00;91187.97;1061545;56;20181;-85
2021/01/22 00:12:54;;;;;;;;;;;;;;;2.20;100.00;91185.84;1059253;56;20170;-86
2021/01/22 00:13:55;;;;;;;;;;;;;;;2.23;100.00;91186.91;1055114;56;20167;-85
2021/01/22 00:14:55;;;;;;;;;;;;;;;2.25;100.00;91187.97;1055135;56;20152;-86
2021/01/22 00:15:56;;;;;;;;;;;;;;;2.22;100.00;91191.44;1057205;56;20334;-86
2021/01/22 00:16:56;;;;;;;;;;;;;;;2.19;100.00;91189.59;1059315;56;20162;-84
2021/01/22 00:17:57;;;;;;;;;;;;;;;2.17;100.00;91193.81;1061429;56;20176;-88
2021/01/22 00:18:58;;;;;;;;;;;;;;;2.16;100.00;91190.44;1061474;56;20233;-85
2021/01/22 00:19:58;;;;;;;;;;;;;;;2.15;100.00;91183.69;1057174;56;21261;-85
2021/01/22 00:20:59;;;;;;;;;;;;;;;2.30;100.00;91194.66;1057226;56;20181;-86
2021/01/22 00:21:59;;;;;;;;;;;;;;;2.30;100.00;91189.37;1059313;56;20181;-86
2021/01/22 00:23:02;;;;;;;;;;;;;;;2.33;100.00;91196.47;1057180;56;20664;-86
2021/01/22 00:24:04;;;;;;;;;;;;;;;2.27;100.00;91184.94;1059506;56;20170;-85
2021/01/22 00:25:05;;;;;;;;;;;;;;;2.23;100.00;91187.63;1057373;56;20655;-86
2021/01/22 00:26:06;;;;;;;;;;;;;;;2.25;100.00;91187.97;1059275;56;20155;-86
2021/01/22 00:27:07;;;;;;;;;;;;;;;2.17;100.00;91186.66;1057293;56;20210;-84
2021/01/22 00:28:07;;;;;;;;;;;;;;;2.09;100.00;91185.31;1057216;56;20234;-87
2021/01/22 00:29:08;;;;;;;;;;;;;;;2.06;100.00;91191.41;1057201;56;20308;-85
2021/01/22 00:30:10;;;;;;;;;;;;;;;2.03;100.00;91196.75;1057285;56;20194;-85
2021/01/22 00:31:10;;;;;;;;;;;;;;;2.12;100.00;91194.31;1055218;56;20155;-85
2021/01/22 00:32:11;;;;;;;;;;;;;;;2.24;100.00;91177.88;1057184;56;20170;-84
2021/01/22 00:33:11;;;;;;;;;;;;;;;2.27;100.00;91188.31;1057135;56;20663;-85
2021/01/22 00:34:12;;;;;;;;;;;;;;;2.25;100.00;91192.53;1059370;56;20592;-85
2021/01/22 00:35:12;;;;;;;;;;;;;;;2.33;100.00;91191.22;1057346;56;20174;-88
2021/01/22 00:36:13;;;;;;;;;;;;;;;2.36;100.00;91193.00;1059469;56;20194;-84
2021/01/22 00:37:13;;;;;;;;;;;;;;;2.40;100.00;91196.31;1059361;56;20166;-85
2021/01/22 00:38:14;;;;;;;;;;;;;;;2.39;100.00;91189.56;1057397;56;20155;-85
2021/01/22 00:39:15;;;;;;;;;;;;;;;2.35;100.00;91191.53;1057316;56;20178;-85
2021/01/22 00:40:15;;;;;;;;;;;;;;;2.42;100.00;91199.28;1059368;56;20670;-86
2021/01/22 00:41:15;;;;;;;;;;;;;;;2.36;100.00;91195.66;1055114;56;20167;-84
2021/01/22 00:42:16;;;;;;;;;;;;;;;2.29;100.00;91203.00;1057171;56;20166;-84
2021/01/22 00:43:16;;;;;;;;;;;;;;;2.26;100.00;91194.72;1057088;56;20636;-84
2021/01/22 00:44:17;;;;;;;;;;;;;;;2.27;100.00;91190.19;1061194;56;20232;-86
2021/01/22 00:45:17;;;;;;;;;;;;;;;2.34;100.00;91184.78;1059560;56;20189;-88
2021/01/22 00:46:18;;;;;;;;;;;;;;;2.31;100.00;91180.31;1061846;56;20165;-85
2021/01/22 00:47:18;;;;;;;;;;;;;;;2.41;100.00;91173.31;1059555;56;20159;-86
2021/01/22 00:48:19;;;;;;;;;;;;;;;2.39;100.00;91183.53;1057500;56;20321;-85
2021/01/22 00:49:19;;;;;;;;;;;;;;;2.36;100.00;91181.72;1057336;56;20166;-85
2021/01/22 00:50:20;;;;;;;;;;;;;;;2.31;100.00;91187.50;1057245;56;20639;-86
2021/01/22 00:51:20;;;;;;;;;;;;;;;2.26;100.00;91184.19;1059494;56;20256;-86
2021/01/22 00:52:21;;;;;;;;;;;;;;;2.31;100.00;91190.87;1059534;56;20193;-84
2021/01/22 00:53:22;;;;;;;;;;;;;;;2.39;100.00;91194.84;1057397;56;20162;-86
2021/01/22 00:54:23;;;;;;;;;;;;;;;2.36;100.00;91187.00;1057460;56;20166;-86
2021/01/22 00:55:25;;;;;;;;;;;;;;;2.44;100.00;91190.97;1057582;56;20155;-86
2021/01/22 00:56:26;;;;;;;;;;;;;;;2.41;100.00;91187.25;1057404;56;20167;-84
2021/01/22 00:57:27;;;;;;;;;;;;;;;2.38;100.00;91188.09;1057448;56;20608;-86
2021/01/22 00:58:28;;;;;;;;;;;;;;;2.33;100.00;91182.53;1059356;56;20206;-86
2021/01/22 00:59:28;;;;;;;;;;;;;;;2.33;100.00;91172.00;1059403;56;20196;-85
2021/01/22 01:00:29;;;;;;;;;;;;;;;2.37;100.00;91183.19;1061618;56;20154;-86
2021/01/22 01:01:29;;;;;;;;;;;;;;;2.38;100.00;91184.69;1057318;56;20178;-85
2021/01/22 01:02:29;;;;;;;;;;;;;;;2.37;100.00;91177.94;1057279;56;20163;-86
2021/01/22 01:03:30;;;;;;;;;;;;;;;2.32;100.00;91189.72;1061635;56;20154;-86
2021/01/22 01:04:31;;;;;;;;;;;;;;;2.31;100.00;91184.84;1059447;56;20166;-85
2021/01/22 01:05:32;;;;;;;;;;;;;;;2.34;100.00;91186.69;1059536;56;20216;-86
2021/01/22 01:06:34;;;;;;;;;;;;;;;2.47;100.00;91176.97;1059581;56;20155;-87
2021/01/22 01:07:34;;;;;;;;;;;;;;;2.53;100.00;91177.94;1059390;56;20252;-85
2021/01/22 01:08:35;;;;;;;;;;;;;;;2.55;100.00;91169.59;1057460;56;20159;-84
2021/01/22 01:09:35;;;;;;;;;;;;;;;2.56;100.00;91171.12;1057240;56;20158;-86
2021/01/22 01:10:36;;;;;;;;;;;;;;;2.58;100.00;91168.78;1057429;56;20182;-85
2021/01/22 01:11:36;;;;;;;;;;;;;;;2.61;100.00;91170.62;1059313;56;20632;-87
2021/01/22 01:12:37;;;;;;;;;;;;;;;2.95;100.00;91165.63;1059408;56;20158;-85
2021/01/22 01:13:37;;;;;;;;;;;;;;;3.05;100.00;91169.16;1057136;56;20177;-87
2021/01/22 01:14:38;;;;;;;;;;;;;;;3.02;99.26;91178.62;1059437;56;20241;-88
2021/01/22 01:15:38;;;;;;;;;;;;;;;3.10;98.61;91173.91;1057236;56;20150;-85
2021/01/22 01:16:39;;;;;;;;;;;;;;;3.00;99.05;91165.13;1057327;56;20190;-84
2021/01/22 01:17:40;;;;;;;;;;;;;;;3.15;98.16;91159.47;1059285;56;20182;-85
2021/01/22 01:18:41;;;;;;;;;;;;;;;3.11;97.77;91182.56;1061641;56;20207;-86
2021/01/22 01:19:41;;;;;;;;;;;;;;;3.08;98.79;91176.25;1061435;56;20153;-85
2021/01/22 01:20:41;;;;;;;;;;;;;;;3.02;98.88;91173.34;1057269;56;20217;-85
2021/01/22 01:21:42;;;;;;;;;;;;;;;2.98;98.70;91180.63;1057360;56;20242;-84
2021/01/22 01:22:42;;;;;;;;;;;;;;;3.21;97.28;91161.19;1059508;56;20595;-86
2021/01/22 01:23:43;;;;;;;;;;;;;;;3.17;97.04;91168.47;1059537;56;20167;-85
2021/01/22 01:24:43;;;;;;;;;;;;;;;3.17;96.54;91179.03;1059535;56;20178;-86
2021/01/22 01:25:44;;;;;;;;;;;;;;;3.16;96.84;91167.00;1057352;56;20247;-86
2021/01/22 01:26:46;;;;;;;;;;;;;;;3.24;96.30;91170.16;1057387;56;20646;-86
2021/01/22 01:27:46;;;;;;;;;;;;;;;3.23;95.59;91176.63;1059561;56;20162;-85
2021/01/22 01:28:47;;;;;;;;;;;;;;;3.19;96.03;91173.31;1061628;56;20193;-85
2021/01/22 01:29:47;;;;;;;;;;;;;;;3.14;96.88;91181.75;1059337;56;20162;-85
2021/01/22 01:30:47;;;;;;;;;;;;;;;3.18;96.29;91185.78;1059418;56;20155;-88
2021/01/22 01:31:48;;;;;;;;;;;;;;;3.10;96.73;91178.47;1057264;56;20286;-84
2021/01/22 01:32:48;;;;;;;;;;;;;;;3.10;97.18;91173.19;1055091;56;20156;-85
2021/01/22 01:33:49;;;;;;;;;;;;;;;3.17;95.24;91184.31;1057131;56;20194;-87
2021/01/22 01:34:49;;;;;;;;;;;;;;;3.18;96.54;91183.16;1059333;56;20615;-85
2021/01/22 01:35:52;;;;;;;;;;;;;;;3.05;96.88;91168.41;1059312;56;20644;-85
2021/01/22 01:36:52;;;;;;;;;;;;;;;2.98;97.82;91172.69;1057369;56;20194;-85
2021/01/22 01:37:53;;;;;;;;;;;;;;;3.13;96.32;91167.81;1057250;56;21000;-83
2021/01/22 01:38:53;;;;;;;;;;;;;;;3.09;96.83;91180.38;1059501;56;20182;-87
2021/01/22 01:39:53;;;;;;;;;;;;;;;3.05;96.63;91171.06;1061468;56;20173;-86
2021/01/22 01:40:54;;;;;;;;;;;;;;;3.02;97.15;91180.53;1061499;56;20177;-85
2021/01/22 01:41:54;;;;;;;;;;;;;;;3.01;97.21;91173.78;1059129;56;20162;-87
2021/01/22 01:42:55;;;;;;;;;;;;;;;2.96;97.58;91177.66;1057087;56;20172;-86
2021/01/22 01:43:55;;;;;;;;;;;;;;;3.03;96.67;91172.22;1056864;56;20356;-85
2021/01/22 01:44:56;;;;;;;;;;;;;;;3.05;96.37;91173.69;1061488;56;20154;-87
2021/01/22 01:45:56;;;;;;;;;;;;;;;2.98;97.30;91177.25;1061290;56;20256;-85
2021/01/22 01:46:57;;;;;;;;;;;;;;;3.03;96.99;91182.78;1057036;56;20293;-85
2021/01/22 01:47:57;;;;;;;;;;;;;;;3.05;95.61;91171.06;1057146;56;20190;-86
2021/01/22 01:48:58;;;;;;;;;;;;;;;3.03;96.05;91182.78;1061303;56;20619;-85
2021/01/22 01:49:59;;;;;;;;;;;;;;;3.08;96.17;91184.16;1059318;56;20155;-84
2021/01/22 01:50:59;;;;;;;;;;;;;;;2.98;96.78;91175.34;1059422;56;20163;-86
2021/01/22 01:52:00;;;;;;;;;;;;;;;3.00;96.40;91177.56;1059019;56;20163;-86
2021/01/22 01:53:01;;;;;;;;;;;;;;;2.89;96.88;91175.19;1057167;56;20256;-85
2021/01/22 01:54:02;;;;;;;;;;;;;;;2.98;96.29;91182.50;1057089;56;20159;-85
2021/01/22 01:55:02;;;;;;;;;;;;;;;3.16;94.60;91176.78;1055174;56;20269;-85
2021/01/22 01:56:03;;;;;;;;;;;;;;;3.25;94.03;91171.66;1057167;56;20262;-86
2021/01/22 01:57:04;;;;;;;;;;;;;;;3.06;95.81;91180.44;1057229;56;20173;-85
2021/01/22 01:58:05;;;;;;;;;;;;;;;3.06;95.14;91167.25;1055168;56;20174;-84
2021/01/22 01:59:06;;;;;;;;;;;;;;;2.96;95.74;91166.38;1059254;56;20710;-85
2021/01/22 02:00:07;;;;;;;;;;;;;;;3.06;93.87;91172.53;1057243;56;20173;-85
2021/01/22 02:01:09;;;;;;;;;;;;;;;3.18;92.81;91171.84;1057141;56;20173;-85
2021/01/22 02:02:10;;;;;;;;;;;;;;;3.03;93.76;91164.31;1057181;56;20174;-86
2021/01/22 02:03:10;;;;;;;;;;;;;;;2.99;95.01;91176.09;1059242;56;20585;-85
2021/01/22 02:04:11;;;;;;;;;;;;;;;3.32;91.52;91176.75;1059255;56;20603;-85
2021/01/22 02:05:11;;;;;;;;;;;;;;;3.22;93.32;91167.22;1059206;56;20163;-87
2021/01/22 02:06:12;;;;;;;;;;;;;;;3.29;91.84;91172.28;1055133;56;21031;-87
2021/01/22 02:07:12;;;;;;;;;;;;;;;3.20;92.91;91172.16;1057218;56;20167;-84
2021/01/22 02:08:13;;;;;;;;;;;;;;;3.14;93.25;91168.56;1057249;56;21234;-86
2021/01/22 02:09:14;;;;;;;;;;;;;;;3.07;93.58;91168.72;1059235;56;20261;-84
2021/01/22 02:10:14;;;;;;;;;;;;;;;3.12;92.16;91174.25;1059121;56;20250;-84
2021/01/22 02:11:16;;;;;;;;;;;;;;;3.20;91.82;91177.44;1059144;56;20173;-84
2021/01/22 02:12:17;;;;;;;;;;;;;;;3.13;92.91;91170.47;1057172;56;20175;-86
2021/01/22 02:13:19;;;;;;;;;;;;;;;3.03;93.89;91166.94;1059167;56;20215;-86
2021/01/22 02:14:20;;;;;;;;;;;;;;;2.98;92.61;91164.78;1059236;56;20178;-85
2021/01/22 02:15:21;;;;;;;;;;;;;;;3.14;91.16;91173.84;1061323;56;20177;-85
2021/01/22 02:16:23;;;;;;;;;;;;;;;3.16;90.73;91171.50;1059237;56;20178;-84
2021/01/22 02:17:23;;;;;;;;;;;;;;;3.13;92.27;91178.38;1057309;56;20190;-86
2021/01/22 02:18:24;;;;;;;;;;;;;;;3.16;91.36;91177.56;1059240;56;20194;-85
2021/01/22 02:19:34;;;;;;;;;;;;;;;3.06;93.28;91177.81;1059349;56;20685;-85
2021/01/22 02:20:38;;;;;;;;;;;;;;;3.06;93.67;91167.25;1057420;56;20223;-85
2021/01/22 02:21:39;;;;;;;;;;;;;;;3.21;91.32;91179.69;1059413;56;20173;-85
2021/01/22 02:22:42;;;;;;;;;;;;;;;3.15;92.30;91170.03;1059153;56;20647;-84
2021/01/22 02:23:45;;;;;;;;;;;;;;;3.08;92.49;91173.59;1057199;56;20219;-86
2021/01/22 02:24:45;;;;;;;;;;;;;;;3.08;92.35;91167.59;1057240;56;20181;-85
2021/01/22 02:25:48;;;;;;;;;;;;;;;3.11;92.85;91169.38;1057086;56;20163;-86
2021/01/22 02:26:55;;;;;;;;;;;;;;;3.08;92.85;91168.31;1059270;56;20561;-86
2021/01/22 02:27:56;;;;;;;;;;;;;;;3.21;90.62;91165.75;1059469;56;20728;-85
2021/01/22 02:29:00;;;;;;;;;;;;;;;3.23;91.75;91164.16;1059179;56;20276;-86
2021/01/22 02:30:05;;;;;;;;;;;;;;;3.30;90.40;91168.53;1057536;56;20187;-85
2021/01/22 02:31:05;;;;;;;;;;;;;;;3.29;92.34;91164.38;1057189;56;20209;-85
2021/01/22 02:32:07;;;;;;;;;;;;;;;3.24;92.36;91160.34;1059191;56;20186;-86
2021/01/22 02:33:08;;;;;;;;;;;;;;;3.31;91.01;91154.16;1056871;56;20345;-85
2021/01/22 02:34:10;;;;;;;;;;;;;;;3.21;92.36;91153.28;1059112;56;20162;-85
2021/01/22 02:35:12;;;;;;;;;;;;;;;3.23;91.06;91150.22;1061220;56;20158;-83
2021/01/22 02:36:13;;;;;;;;;;;;;;;3.25;90.00;91150.56;1056989;56;20666;-85
2021/01/22 02:37:17;;;;;;;;;;;;;;;3.18;91.01;91142.81;1059162;56;20173;-85
2021/01/22 02:38:19;;;;;;;;;;;;;;;3.07;92.51;91142.34;1061163;56;20189;-85
2021/01/22 02:39:21;;;;;;;;;;;;;;;3.09;91.43;91146.06;1059169;56;20166;-85
2021/01/22 02:40:22;;;;;;;;;;;;;;;3.00;93.20;91141.38;1061398;56;20201;-85
2021/01/22 02:41:23;;;;;;;;;;;;;;;2.92;93.09;91140.06;1061318;56;20166;-85
2021/01/22 02:42:25;;;;;;;;;;;;;;;2.98;92.75;91142.94;1059068;56;20155;-86
2021/01/22 02:43:27;;;;;;;;;;;;;;;2.95;93.25;91143.78;1057070;56;20234;-86
2021/01/22 02:44:28;;;;;;;;;;;;;;;2.96;93.55;91146.00;1058727;56;20185;-87
2021/01/22 02:45:30;;;;;;;;;;;;;;;2.98;93.15;91145.56;1057033;56;20214;-85
2021/01/22 02:46:31;;;;;;;;;;;;;;;2.94;93.32;91147.56;1054804;56;20156;-85
2021/01/22 02:47:32;;;;;;;;;;;;;;;2.91;92.49;91130.69;1054702;56;20261;-87
2021/01/22 02:48:33;;;;;;;;;;;;;;;2.90;93.56;91142.38;1054884;56;20208;-86
2021/01/22 02:49:34;;;;;;;;;;;;;;;2.98;92.24;91148.22;1057118;56;20155;-85
2021/01/22 02:50:35;;;;;;;;;;;;;;;2.92;92.80;91149.88;1056946;56;20186;-86
2021/01/22 02:51:37;;;;;;;;;;;;;;;2.93;92.13;91154.00;1057095;56;20735;-84
2021/01/22 02:52:37;;;;;;;;;;;;;;;2.85;93.80;91147.41;1057003;56;20186;-86
2021/01/22 02:53:38;;;;;;;;;;;;;;;2.83;93.97;91157.66;1054803;56;20158;-85
2021/01/22 02:54:39;;;;;;;;;;;;;;;2.84;93.17;91153.84;1056961;56;20167;-86
2021/01/22 02:55:42;;;;;;;;;;;;;;;2.74;94.24;91153.69;1056855;56;20182;-86
2021/01/22 02:56:46;;;;;;;;;;;;;;;2.70;94.27;91153.03;1059344;56;20208;-85
2021/01/22 02:57:52;;;;;;;;;;;;;;;2.60;94.93;91154.06;1059134;56;20162;-85
2021/01/22 02:58:56;;;;;;;;;;;;;;;2.53;95.51;91164.75;1055327;56;20187;-85
2021/01/22 02:59:59;;;;;;;;;;;;;;;2.49;95.92;91156.91;1057245;56;20182;-84
2021/01/22 03:01:04;;;;;;;;;;;;;;;2.39;96.70;91165.09;1061203;56;20158;-84
2021/01/22 03:02:12;;;;;;;;;;;;;;;2.38;97.00;91161.72;1059172;56;20181;-85
2021/01/22 03:03:20;;;;;;;;;;;;;;;2.41;96.74;91160.88;1059259;56;20273;-86
2021/01/22 03:04:23;;;;;;;;;;;;;;;2.30;97.79;91157.75;1057246;56;20694;-85
2021/01/22 03:05:25;;;;;;;;;;;;;;;2.22;97.77;91162.44;1057332;56;20226;-85
2021/01/22 03:06:31;;;;;;;;;;;;;;;2.23;97.59;91156.00;1057406;56;20642;-85
2021/01/22 03:07:36;;;;;;;;;;;;;;;2.26;98.13;91159.72;1057424;56;20182;-87
2021/01/22 03:08:38;;;;;;;;;;;;;;;2.19;98.45;91154.59;1057428;56;20186;-85
2021/01/22 03:09:40;;;;;;;;;;;;;;;2.17;99.19;91160.31;1059263;56;20171;-85
2021/01/22 03:10:41;;;;;;;;;;;;;;;2.17;98.48;91157.66;1059363;56;20995;-86
2021/01/22 03:11:42;;;;;;;;;;;;;;;2.08;99.11;91154.13;1059475;56;20163;-84
2021/01/22 03:12:46;;;;;;;;;;;;;;;2.03;100.00;91154.59;1061556;56;20157;-86
2021/01/22 03:13:48;;;;;;;;;;;;;;;2.06;99.99;91156.41;1057240;56;20230;-85
2021/01/22 03:14:49;;;;;;;;;;;;;;;2.08;100.00;91151.47;1057345;56;20202;-85
2021/01/22 03:15:50;;;;;;;;;;;;;;;2.07;99.97;91156.00;1059495;56;20189;-85
2021/01/22 03:16:51;;;;;;;;;;;;;;;2.05;100.00;91154.94;1059353;56;20647;-85
2021/01/22 03:18:08;;;;;;;;;;;;;;;1.96;100.00;91147.59;1059177;56;20588;-85
2021/01/22 03:19:09;;;;;;;;;;;;;;;1.95;99.98;91148.75;1058348;56;20166;-87
2021/01/22 03:20:11;;;;;;;;;;;;;;;1.92;100.00;91139.75;1057162;56;20583;-85
2021/01/22 03:21:12;;;;;;;;;;;;;;;1.94;100.00;91137.47;1057283;56;20162;-85
2021/01/22 03:22:13;;;;;;;;;;;;;;;1.91;100.00;91135.66;1057364;56;20179;-86
2021/01/22 03:23:16;;;;;;;;;;;;;;;1.94;100.00;91137.47;1059255;56;20170;-85
2021/01/22 03:24:16;;;;;;;;;;;;;;;1.94;100.00;91129.56;1057166;56;20607;-86
2021/01/22 03:25:16;;;;;;;;;;;;;;;1.94;100.00;91132.19;1057266;56;20170;-85
2021/01/22 03:26:19;;;;;;;;;;;;;;;1.95;100.00;91132.94;1059494;56;20186;-84
2021/01/22 03:27:19;;;;;;;;;;;;;;;1.96;100.00;91132.53;1061393;56;20250;-85
2021/01/22 03:28:20;;;;;;;;;;;;;;;1.98;100.00;91126.84;1059173;56;20182;-85
2021/01/22 03:29:21;;;;;;;;;;;;;;;1.91;99.87;91125.09;1059340;56;20147;-86
2021/01/22 03:30:22;;;;;;;;;;;;;;;1.85;100.00;91124.13;1055288;56;20652;-87
2021/01/22 03:31:23;;;;;;;;;;;;;;;1.84;100.00;91117.34;1057384;56;20174;-86
2021/01/22 03:32:24;;;;;;;;;;;;;;;1.82;100.00;91124.19;1057280;56;20166;-86
2021/01/22 03:33:24;;;;;;;;;;;;;;;1.78;100.00;91113.72;1059236;56;20205;-86
2021/01/22 03:34:28;;;;;;;;;;;;;;;1.80;100.00;91118.56;1061597;56;20630;-86
2021/01/22 03:35:29;;;;;;;;;;;;;;;1.82;100.00;91113.66;1059377;56;20217;-85
2021/01/22 03:36:29;;;;;;;;;;;;;;;1.83;100.00;91115.13;1055124;56;20159;-86
2021/01/22 03:37:30;;;;;;;;;;;;;;;1.84;100.00;91116.59;1055034;56;20175;-86
2021/01/22 03:38:30;;;;;;;;;;;;;;;1.81;100.00;91120.09;1057161;56;20163;-85
2021/01/22 03:39:34;;;;;;;;;;;;;;;1.77;100.00;91126.16;1059124;56;20190;-86
2021/01/22 03:40:35;;;;;;;;;;;;;;;1.86;100.00;91109.06;1061586;56;20184;-84
2021/01/22 03:41:36;;;;;;;;;;;;;;;1.87;100.00;91119.16;1059303;56;20182;-85
2021/01/22 03:42:36;;;;;;;;;;;;;;;1.85;100.00;91128.66;1057173;56;20185;-85
2021/01/22 03:43:37;;;;;;;;;;;;;;;1.82;100.00;91117.03;1059275;56;20579;-85
2021/01/22 03:44:37;;;;;;;;;;;;;;;1.79;100.00;91123.09;1060651;56;20194;-85
2021/01/22 03:45:38;;;;;;;;;;;;;;;1.79;100.00;91117.84;1059259;56;20154;-86
2021/01/22 03:46:38;;;;;;;;;;;;;;;1.75;100.00;91114.53;1061437;56;20181;-86
2021/01/22 03:47:40;;;;;;;;;;;;;;;1.77;100.00;91109.62;1059299;56;20639;-84
2021/01/22 03:48:41;;;;;;;;;;;;;;;1.80;100.00;91121.97;1061492;56;20701;-84
2021/01/22 03:49:42;;;;;;;;;;;;;;;1.80;100.00;91115.94;1057251;56;20290;-84
2021/01/22 03:50:42;;;;;;;;;;;;;;;1.72;100.00;91116.13;1061601;56;20217;-86
2021/01/22 03:51:43;;;;;;;;;;;;;;;1.71;100.00;91113.87;1061522;56;20575;-86
2021/01/22 03:52:43;;;;;;;;;;;;;;;1.73;100.00;91122.13;1059495;56;20166;-86
2021/01/22 03:53:44;;;;;;;;;;;;;;;1.72;100.00;91118.75;1057209;56;20146;-85
2021/01/22 03:54:45;;;;;;;;;;;;;;;1.68;100.00;91119.97;1057386;56;20639;-85
2021/01/22 03:55:46;;;;;;;;;;;;;;;1.72;100.00;91110.84;1057279;56;20163;-84
2021/01/22 03:56:46;;;;;;;;;;;;;;;1.70;100.00;91112.41;1057223;56;20186;-85
2021/01/22 03:57:47;;;;;;;;;;;;;;;1.80;100.00;91110.69;1057341;56;20178;-86
2021/01/22 03:58:47;;;;;;;;;;;;;;;1.74;100.00;91108.53;1057219;56;20181;-86
2021/01/22 03:59:47;;;;;;;;;;;;;;;1.80;100.00;91106.19;1059363;56;20204;-84
2021/01/22 04:00:48;;;;;;;;;;;;;;;1.80;100.00;91111.44;1059341;56;20174;-85
2021/01/22 04:01:48;;;;;;;;;;;;;;;1.77;100.00;91114.87;1059407;56;20177;-86
2021/01/22 04:02:49;;;;;;;;;;;;;;;1.76;100.00;91113.41;1059271;56;20987;-87
2021/01/22 04:03:49;;;;;;;;;;;;;;;1.76;100.00;91106.25;1057114;56;20174;-85
2021/01/22 04:04:49;;;;;;;;;;;;;;;1.78;100.00;91113.72;1059375;56;20158;-85
2021/01/22 04:05:50;;;;;;;;;;;;;;;1.76;100.00;91113.41;1057258;56;20687;-85
2021/01/22 04:06:50;;;;;;;;;;;;;;;1.81;100.00;91114.81;1059381;56;20174;-85
2021/01/22 04:07:51;;;;;;;;;;;;;;;1.75;100.00;91111.91;1061527;56;20197;-87
2021/01/22 04:08:51;;;;;;;;;;;;;;;1.73;100.00;91111.59;1059296;56;20178;-86
2021/01/22 04:09:52;;;;;;;;;;;;;;;1.72;100.00;91110.84;1061471;56;20662;-84
2021/01/22 04:10:52;;;;;;;;;;;;;;;1.80;100.00;91111.44;1061322;56;20718;-86
2021/01/22 04:11:53;;;;;;;;;;;;;;;1.80;100.00;91110.69;1057174;56;20198;-85
2021/01/22 04:12:53;;;;;;;;;;;;;;;1.87;100.00;91107.91;1059358;56;20150;-86
2021/01/22 04:13:54;;;;;;;;;;;;;;;1.84;100.00;91111.34;1061486;56;20162;-85
2021/01/22 04:14:54;;;;;;;;;;;;;;;1.89;100.00;91111.63;1059333;56;20158;-85
2021/01/22 04:15:55;;;;;;;;;;;;;;;1.87;100.00;91107.91;1057249;56;20158;-86
2021/01/22 04:16:57;;;;;;;;;;;;;;;1.92;100.00;91105.50;1055247;56;20159;-87
2021/01/22 04:17:57;;;;;;;;;;;;;;;1.86;99.80;91106.41;1057249;56;20659;-84
2021/01/22 04:18:57;;;;;;;;;;;;;;;1.86;99.90;91109.78;1059363;56;20218;-85
2021/01/22 04:19:58;;;;;;;;;;;;;;;1.85;100.00;91104.94;1059363;56;20602;-87
2021/01/22 04:20:59;;;;;;;;;;;;;;;1.83;100.00;91099.34;1057303;56;20257;-83
2021/01/22 04:22:00;;;;;;;;;;;;;;;1.83;100.00;91104.59;1061536;56;20162;-84
2021/01/22 04:23:01;;;;;;;;;;;;;;;1.82;100.00;91097.84;1059220;56;20300;-85
2021/01/22 04:24:01;;;;;;;;;;;;;;;1.83;100.00;91100.06;1055084;56;20182;-84
2021/01/22 04:25:02;;;;;;;;;;;;;;;1.87;100.00;91094.72;1059313;56;20265;-84
2021/01/22 04:26:02;;;;;;;;;;;;;;;1.78;100.00;91092.66;1059442;56;20167;-87
2021/01/22 04:27:03;;;;;;;;;;;;;;;1.84;100.00;91101.53;1057335;56;20166;-85
2021/01/22 04:28:03;;;;;;;;;;;;;;;1.85;100.00;91094.41;1057332;56;20181;-86
2021/01/22 04:29:04;;;;;;;;;;;;;;;1.86;100.00;91090.63;1059492;56;20220;-86
2021/01/22 04:30:05;;;;;;;;;;;;;;;1.90;100.00;91086.75;1057176;56;20174;-86
2021/01/22 04:31:05;;;;;;;;;;;;;;;1.83;100.00;91092.16;1057250;56;20170;-86
2021/01/22 04:32:07;;;;;;;;;;;;;;;1.86;100.00;91096.63;1059326;56;20174;-85
2021/01/22 04:33:07;;;;;;;;;;;;;;;1.86;100.00;91093.25;1059418;56;20158;-85
2021/01/22 04:34:08;;;;;;;;;;;;;;;1.92;100.00;91087.06;1059264;56;20190;-85
2021/01/22 04:35:13;;;;;;;;;;;;;;;1.80;100.00;91093.00;1057265;56;20186;-86
2021/01/22 04:36:13;;;;;;;;;;;;;;;1.89;100.00;91100.31;1057313;56;20289;-84
2021/01/22 04:37:14;;;;;;;;;;;;;;;1.86;100.00;91096.63;1057136;56;20271;-84
2021/01/22 04:38:14;;;;;;;;;;;;;;;1.86;100.00;91093.25;1059345;56;20217;-85
2021/01/22 04:39:15;;;;;;;;;;;;;;;1.91;100.00;91092.75;1059397;56;20174;-85
2021/01/22 04:40:16;;;;;;;;;;;;;;;1.94;100.00;91090.06;1059349;56;20182;-87
2021/01/22 04:41:16;;;;;;;;;;;;;;;1.88;99.60;91096.94;1059316;56;20165;-85
2021/01/22 04:42:16;;;;;;;;;;;;;;;1.87;100.00;91089.47;1059191;56;20159;-85
2021/01/22 04:43:17;;;;;;;;;;;;;;;1.83;100.00;91089.53;1059093;56;20180;-86
2021/01/22 04:44:17;;;;;;;;;;;;;;;1.86;100.00;91088.72;1054969;56;20608;-85
2021/01/22 04:45:18;;;;;;;;;;;;;;;1.81;100.00;91089.22;1057062;56;20170;-85
2021/01/22 04:46:19;;;;;;;;;;;;;;;1.86;100.00;91087.97;1059270;56;20234;-84
2021/01/22 04:47:21;;;;;;;;;;;;;;;1.93;100.00;91080.66;1057150;56;20151;-86
2021/01/22 04:48:21;;;;;;;;;;;;;;;1.88;100.00;91081.13;1059358;56;20257;-85
2021/01/22 04:49:22;;;;;;;;;;;;;;;1.93;100.00;91077.28;1059184;56;20237;-86
2021/01/22 04:50:22;;;;;;;;;;;;;;;1.88;100.00;91085.66;1057230;56;20175;-85
2021/01/22 04:51:23;;;;;;;;;;;;;;;1.84;100.00;91085.75;1057290;56;20286;-85
2021/01/22 04:52:24;;;;;;;;;;;;;;;1.83;100.00;91083.53;1059230;56;20189;-85
2021/01/22 04:53:27;;;;;;;;;;;;;;;1.81;100.00;91083.94;1059375;56;20162;-85
2021/01/22 04:54:36;;;;;;;;;;;;;;;1.85;100.00;91081.97;1061461;56;20571;-87
2021/01/22 04:55:41;;;;;;;;;;;;;;;1.87;100.00;91066.50;1059206;56;20626;-85
2021/01/22 04:56:45;;;;;;;;;;;;;;;1.87;100.00;91077.03;1057342;56;20178;-84
2021/01/22 04:57:46;;;;;;;;;;;;;;;1.88;100.00;91073.25;1057231;56;20201;-84
2021/01/22 04:58:48;;;;;;;;;;;;;;;1.82;100.00;91085.44;1057074;56;20166;-86
2021/01/22 04:59:50;;;;;;;;;;;;;;;1.71;100.00;91067.25;1057082;56;20162;-85
2021/01/22 05:00:51;;;;;;;;;;;;;;;1.83;100.00;91083.53;1057075;56;20163;-84
2021/01/22 05:01:52;;;;;;;;;;;;;;;1.80;100.00;91076.44;1056927;56;20258;-85
2021/01/22 05:02:53;;;;;;;;;;;;;;;1.71;100.00;91074.38;1057037;56;20209;-85
2021/01/22 05:03:57;;;;;;;;;;;;;;;1.63;100.00;91073.06;1057174;56;20155;-84
2021/01/22 05:04:58;;;;;;;;;;;;;;;1.68;100.00;91081.22;1055205;56;20702;-86
2021/01/22 05:05:59;;;;;;;;;;;;;;;1.66;100.00;91075.59;1057228;56;20253;-84
2021/01/22 05:07:00;;;;;;;;;;;;;;;1.75;100.00;91072.41;1057015;56;20155;-86
2021/01/22 05:08:02;;;;;;;;;;;;;;;1.76;100.00;91077.28;1057022;56;20265;-84
2021/01/22 05:09:02;;;;;;;;;;;;;;;1.70;100.00;91078.91;1057221;56;20170;-86
2021/01/22 05:10:03;;;;;;;;;;;;;;;1.70;100.00;91071.00;1057236;56;20159;-85
2021/01/22 05:11:03;;;;;;;;;;;;;;;1.71;100.00;91061.19;1057177;56;20186;-84
2021/01/22 05:12:04;;;;;;;;;;;;;;;1.72;100.00;91060.06;1057153;56;20205;-84
2021/01/22 05:13:08;;;;;;;;;;;;;;;1.77;100.00;91068.22;1057311;56;20155;-84
2021/01/22 05:14:09;;;;;;;;;;;;;;;1.82;100.00;91056.44;1057350;56;20159;-84
2021/01/22 05:15:12;;;;;;;;;;;;;;;1.86;100.00;91057.12;1057030;56;20276;-85
2021/01/22 05:16:15;;;;;;;;;;;;;;;1.83;100.00;91054.56;1057335;56;20849;-85
2021/01/22 05:17:15;;;;;;;;;;;;;;;1.88;100.00;91048.78;1059483;56;20189;-84
2021/01/22 05:18:17;;;;;;;;;;;;;;;1.88;100.00;91044.25;1057111;56;20159;-86
2021/01/22 05:19:20;;;;;;;;;;;;;;;1.89;100.00;91050.25;1055111;56;20644;-85
2021/01/22 05:20:27;;;;;;;;;;;;;;;1.94;100.00;91045.25;1055250;56;20249;-87